Time;durP1;ratioP1;P1;durP2;ratioP2;P2;SDS_P1;SDS_P2;PMS_P1;PMS_P2;Temp;Humidity;BMP_temperature;BMP_pressure;BME280_temperature;BME280_humidity;BME280_pressure;Samples;Min_cycle;Max_cycle;Signal;HPM_P1;HPM_P2
2021/06/26 00:00:39;;;;;;;;;;;15.60;99.90;;;;;;6262080;28;20102;-80
2021/06/26 00:03:39;;;;;;;10.75;8.23;;;15.60;99.90;;;;;;6278291;28;19909;-80
2021/06/26 00:06:40;;;;;;;10.32;7.65;;;15.50;99.90;;;;;;6261587;28;20028;-80
2021/06/26 00:09:40;;;;;;;11.73;8.38;;;15.50;99.90;;;;;;6287438;28;20100;-80
2021/06/26 00:12:41;;;;;;;10.70;8.90;;;15.50;99.90;;;;;;6253118;28;20390;-80
2021/06/26 00:15:42;;;;;;;11.10;9.60;;;15.30;99.90;;;;;;6253191;28;20112;-84
2021/06/26 00:18:43;;;;;;;10.80;9.48;;;;;;;;;;6252940;28;20078;-80
2021/06/26 00:21:43;;;;;;;11.05;9.73;;;15.40;99.90;;;;;;6293581;28;20028;-80
2021/06/26 00:24:44;;;;;;;13.25;8.77;;;15.40;99.90;;;;;;6277732;28;20121;-80
2021/06/26 00:27:45;;;;;;;10.68;8.30;;;15.20;99.90;;;;;;6260300;28;20033;-80
2021/06/26 00:30:45;;;;;;;9.88;8.55;;;15.30;99.90;;;;;;6252980;28;20039;-83
2021/06/26 00:33:46;;;;;;;9.30;8.35;;;15.50;99.90;;;;;;6253265;28;20049;-83
2021/06/26 00:36:46;;;;;;;11.57;8.48;;;15.10;99.90;;;;;;6277475;28;20029;-80
2021/06/26 00:39:47;;;;;;;11.70;7.97;;;15.40;99.90;;;;;;6277448;28;20032;-81
2021/06/26 00:42:47;;;;;;;13.88;9.15;;;15.40;99.90;;;;;;6295699;28;20028;-80
2021/06/26 00:45:49;;;;;;;9.05;8.15;;;;;;;;;;6277212;28;20035;-80
2021/06/26 00:48:50;;;;;;;11.93;7.82;;;;;;;;;;6277505;28;20115;-80
2021/06/26 00:51:50;;;;;;;9.75;8.23;;;14.90;99.90;;;;;;6276697;28;20044;-79
2021/06/26 00:54:52;;;;;;;11.35;9.32;;;;;;;;;;6276839;28;20032;-80
2021/06/26 00:57:56;;;;;;;9.37;8.47;;;15.30;99.90;;;;;;6258097;28;20036;-80
2021/06/26 01:00:57;;;;;;;8.32;7.45;;;;;;;;;;6253109;28;20497;-80
2021/06/26 01:03:58;;;;;;;10.80;7.93;;;;;;;;;;6273543;28;20029;-80
2021/06/26 01:06:59;;;;;;;9.18;8.10;;;;;;;;;;6294618;28;20065;-80
2021/06/26 01:10:00;;;;;;;8.50;7.65;;;;;;;;;;6294652;28;20039;-80
2021/06/26 01:13:00;;;;;;;8.68;7.32;;;14.90;99.90;;;;;;6276598;28;20059;-84
2021/06/26 01:16:01;;;;;;;12.10;8.13;;;15.20;99.90;;;;;;6294715;28;20051;-80
2021/06/26 01:19:02;;;;;;;11.85;8.43;;;;;;;;;;6276402;28;20063;-81
2021/06/26 01:22:05;;;;;;;10.15;9.05;;;15.00;99.90;;;;;;6294454;28;20028;-80
2021/06/26 01:25:06;;;;;;;16.48;9.32;;;14.80;99.90;;;;;;6259491;28;20035;-80
2021/06/26 01:28:07;;;;;;;10.27;8.50;;;14.90;99.90;;;;;;6276404;28;20034;-80
2021/06/26 01:31:08;;;;;;;9.48;8.57;;;14.90;99.90;;;;;;6275251;28;20466;-80
2021/06/26 01:34:08;;;;;;;11.60;9.23;;;14.80;99.90;;;;;;6238936;28;20033;-79
2021/06/26 01:37:09;;;;;;;10.07;8.60;;;15.00;99.90;;;;;;6235005;28;20025;-80
2021/06/26 01:40:15;;;;;;;10.18;9.07;;;14.80;99.90;;;;;;6250914;28;20029;-81
2021/06/26 01:43:15;;;;;;;12.73;8.82;;;14.80;99.90;;;;;;6251311;28;20518;-80
2021/06/26 01:46:16;;;;;;;11.43;8.55;;;14.80;99.90;;;;;;6250882;28;20044;-79
2021/06/26 01:49:18;;;;;;;13.55;8.98;;;14.50;99.90;;;;;;6251300;28;20068;-80
2021/06/26 01:52:18;;;;;;;10.02;8.18;;;14.60;99.90;;;;;;6251050;28;20122;-80
2021/06/26 01:55:19;;;;;;;11.18;9.45;;;14.70;99.90;;;;;;6258731;28;20032;-80
2021/06/26 01:58:20;;;;;;;12.95;9.07;;;14.80;99.90;;;;;;6275162;28;20086;-81
2021/06/26 02:01:21;;;;;;;12.30;9.05;;;14.80;99.90;;;;;;6265205;28;20111;-80
2021/06/26 02:04:22;;;;;;;14.30;10.00;;;;;;;;;;6262322;28;20039;-80
2021/06/26 02:07:22;;;;;;;11.70;9.48;;;14.70;99.90;;;;;;6267657;28;20029;-80
2021/06/26 02:10:23;;;;;;;10.02;9.02;;;14.60;99.90;;;;;;6250470;28;20025;-81
2021/06/26 02:13:23;;;;;;;11.85;9.30;;;14.50;99.90;;;;;;6268103;28;20033;-82
2021/06/26 02:16:24;;;;;;;11.30;9.05;;;14.60;99.90;;;;;;6268558;28;20047;-83
2021/06/26 02:19:24;;;;;;;11.07;9.55;;;14.60;99.90;;;;;;6271757;28;20074;-80
2021/06/26 02:22:25;;;;;;;11.73;9.30;;;14.40;99.90;;;;;;6292694;28;20033;-82
2021/06/26 02:25:26;;;;;;;15.77;9.70;;;14.80;99.90;;;;;;6275005;28;20033;-80
2021/06/26 02:28:26;;;;;;;10.60;9.15;;;14.60;99.90;;;;;;6256122;28;20029;-80
2021/06/26 02:31:27;;;;;;;12.68;9.65;;;14.40;99.90;;;;;;6250035;28;20135;-80
2021/06/26 02:34:27;;;;;;;11.93;9.25;;;14.50;99.90;;;;;;6233948;28;20117;-80
2021/06/26 02:37:28;;;;;;;12.77;8.98;;;15.00;99.90;;;;;;6250176;28;20364;-80
2021/06/26 02:40:29;;;;;;;12.50;8.52;;;14.50;99.90;;;;;;6250118;28;20364;-80
2021/06/26 02:43:29;;;;;;;10.15;8.98;;;14.40;99.90;;;;;;6250220;28;20029;-80
2021/06/26 02:46:30;;;;;;;10.90;8.57;;;14.60;99.90;;;;;;6233613;28;20166;-81
2021/06/26 02:49:30;;;;;;;12.00;8.98;;;14.40;99.90;;;;;;6274818;28;20033;-80
2021/06/26 02:52:31;;;;;;;11.63;9.32;;;14.90;99.90;;;;;;6274282;28;20048;-81
2021/06/26 02:55:32;;;;;;;11.07;9.23;;;14.50;99.90;;;;;;6276942;28;20116;-80
2021/06/26 02:58:32;;;;;;;15.20;8.88;;;14.80;99.90;;;;;;6266212;28;20040;-85
2021/06/26 03:01:33;;;;;;;11.05;8.50;;;;;;;;;;6250258;28;20131;-83
2021/06/26 03:04:34;;;;;;;11.15;9.82;;;14.30;99.90;;;;;;6250093;28;20032;-80
2021/06/26 03:07:35;;;;;;;10.45;9.02;;;14.30;99.90;;;;;;6233186;28;20029;-80
2021/06/26 03:10:35;;;;;;;11.82;9.73;;;14.00;99.90;;;;;;6249870;28;20033;-82
2021/06/26 03:13:36;;;;;;;14.80;9.18;;;14.30;99.90;;;;;;6249708;28;20037;-80
2021/06/26 03:16:36;;;;;;;12.70;9.45;;;14.40;99.90;;;;;;6272380;28;20600;-80
2021/06/26 03:19:38;;;;;;;15.38;9.48;;;14.30;99.90;;;;;;6264510;28;20028;-79
2021/06/26 03:22:39;;;;;;;10.40;9.30;;;13.30;99.90;;;;;;6292296;28;20469;-79
2021/06/26 03:25:39;;;;;;;12.13;9.30;;;14.20;99.90;;;;;;6262651;28;20035;-79
2021/06/26 03:28:40;;;;;;;11.75;9.10;;;;;;;;;;6233301;28;20032;-79
2021/06/26 03:31:41;;;;;;;10.73;9.18;;;13.70;99.90;;;;;;6249586;28;20032;-79
2021/06/26 03:34:42;;;;;;;10.35;9.25;;;14.30;99.90;;;;;;6233090;28;20029;-80
2021/06/26 03:37:43;;;;;;;9.90;8.90;;;14.30;99.90;;;;;;6267598;28;20036;-79
2021/06/26 03:40:43;;;;;;;16.23;9.93;;;14.20;99.90;;;;;;6232835;28;20419;-84
2021/06/26 03:43:44;;;;;;;13.48;9.07;;;;;;;;;;6249965;28;20379;-80
2021/06/26 03:46:45;;;;;;;11.68;9.93;;;14.00;99.90;;;;;;6249338;28;20029;-80
2021/06/26 03:49:46;;;;;;;10.40;9.30;;;;;;;;;;6267765;28;20037;-81
2021/06/26 03:52:46;;;;;;;11.85;9.45;;;14.00;99.90;;;;;;6267164;28;20092;-79
2021/06/26 03:55:53;;;;;;;15.70;10.70;;;14.10;99.90;;;;;;6235825;28;20037;-80
2021/06/26 03:58:53;;;;;;;12.77;9.05;;;13.90;99.90;;;;;;6255061;28;20037;-80
2021/06/26 04:01:54;;;;;;;11.20;9.27;;;14.20;99.90;;;;;;6271622;28;20639;-80
2021/06/26 04:04:54;;;;;;;14.68;10.05;;;14.00;99.90;;;;;;6236798;28;20056;-80
2021/06/26 04:07:55;;;;;;;12.63;9.52;;;14.10;99.90;;;;;;6237237;28;20025;-83
2021/06/26 04:10:55;;;;;;;12.65;9.63;;;14.30;99.90;;;;;;6254329;28;20033;-83
2021/06/26 04:13:56;;;;;;;12.27;9.95;;;14.30;99.90;;;;;;6253389;28;20136;-80
2021/06/26 04:16:57;;;;;;;11.82;9.52;;;14.40;99.90;;;;;;6253902;28;20498;-80
2021/06/26 04:19:57;;;;;;;11.52;9.25;;;14.80;99.90;;;;;;6265661;28;20039;-81
2021/06/26 04:22:58;;;;;;;15.35;9.43;;;14.90;99.90;;;;;;6277269;28;20755;-80
2021/06/26 04:25:58;;;;;;;11.02;9.13;;;15.40;99.90;;;;;;6253731;28;20029;-80
2021/06/26 04:28:59;;;;;;;10.43;9.40;;;;;;;;;;6253357;28;20545;-80
2021/06/26 04:32:00;;;;;;;12.00;9.13;;;16.40;99.90;;;;;;6271429;28;20025;-79
2021/06/26 04:35:01;;;;;;;11.93;9.65;;;;;;;;;;6253162;28;20033;-81
2021/06/26 04:38:02;;;;;;;11.10;9.07;;;;;;;;;;6253089;28;20041;-80
2021/06/26 04:41:03;;;;;;;13.10;10.48;;;16.30;99.90;;;;;;6253115;28;20433;-80
2021/06/26 04:44:04;;;;;;;12.48;9.07;;;15.80;99.90;;;;;;6253209;28;20029;-81
2021/06/26 04:47:04;;;;;;;11.85;9.45;;;15.70;99.90;;;;;;6236004;28;20466;-79
2021/06/26 04:50:06;;;;;;;10.15;8.88;;;15.80;99.90;;;;;;6236485;28;20029;-80
2021/06/26 04:53:07;;;;;;;9.95;8.95;;;15.80;99.90;;;;;;6252835;28;20128;-79
2021/06/26 04:56:07;;;;;;;11.00;9.90;;;16.00;99.90;;;;;;6252531;28;20054;-80
2021/06/26 04:59:08;;;;;;;10.70;8.52;;;16.30;99.90;;;;;;6252614;28;20040;-80
2021/06/26 05:02:08;;;;;;;11.05;8.88;;;16.00;99.90;;;;;;6252500;28;20021;-80
2021/06/26 05:05:09;;;;;;;10.70;9.60;;;16.10;99.90;;;;;;6269906;28;20667;-80
2021/06/26 05:08:11;;;;;;;11.38;8.88;;;16.20;99.90;;;;;;6251844;28;20057;-80
2021/06/26 05:11:12;;;;;;;12.95;9.52;;;16.30;99.90;;;;;;6235982;28;20029;-80
2021/06/26 05:14:12;;;;;;;13.23;9.05;;;16.30;99.90;;;;;;6235211;28;20032;-80
2021/06/26 05:17:13;;;;;;;12.85;10.25;;;16.30;99.90;;;;;;6252088;28;20041;-80
2021/06/26 05:20:16;;;;;;;11.68;10.45;;;16.20;99.90;;;;;;6255177;28;20064;-80
2021/06/26 05:23:19;;;;;;;12.38;9.77;;;16.20;99.90;;;;;;6270351;28;20029;-80
2021/06/26 05:26:20;;;;;;;10.25;9.23;;;16.60;99.90;;;;;;6293437;28;20031;-81
2021/06/26 05:29:21;;;;;;;8.93;8.02;;;17.20;99.90;;;;;;6259662;28;20024;-81
2021/06/26 05:32:21;;;;;;;9.52;8.50;;;18.00;99.90;;;;;;6262155;28;20029;-84
2021/06/26 05:35:22;;;;;;;11.88;8.35;;;;;;;;;;6269291;28;20029;-86
2021/06/26 05:38:23;;;;;;;10.18;8.82;;;18.10;99.90;;;;;;6251226;28;20041;-84
2021/06/26 05:41:24;;;;;;;10.50;9.40;;;;;;;;;;6234763;28;20025;-81
2021/06/26 05:44:25;;;;;;;9.35;8.43;;;18.40;99.90;;;;;;6261048;28;20467;-86
2021/06/26 05:47:25;;;;;;;9.48;8.57;;;18.40;99.90;;;;;;6256784;28;20047;-81
2021/06/26 05:50:26;;;;;;;10.13;8.35;;;17.90;99.90;;;;;;6271771;28;20395;-81
2021/06/26 05:53:26;;;;;;;8.77;7.85;;;17.90;99.90;;;;;;6234460;28;20052;-81
2021/06/26 05:56:27;;;;;;;9.50;8.05;;;;;;;;;;6251193;28;20037;-85
2021/06/26 05:59:28;;;;;;;10.40;8.63;;;17.50;99.90;;;;;;6251405;28;20364;-80
2021/06/26 06:02:28;;;;;;;10.93;8.15;;;17.40;99.90;;;;;;6235535;28;20035;-80
2021/06/26 06:05:29;;;;;;;10.43;9.20;;;17.30;99.90;;;;;;6270720;28;20021;-81
2021/06/26 06:08:30;;;;;;;9.60;8.60;;;17.30;99.90;;;;;;6250620;28;20474;-82
2021/06/26 06:11:31;;;;;;;9.23;7.93;;;17.30;99.90;;;;;;6262433;28;20035;-86
2021/06/26 06:14:31;;;;;;;9.00;8.13;;;17.50;99.90;;;;;;6231683;28;20071;-83
2021/06/26 06:17:32;;;;;;;9.75;8.43;;;17.60;99.90;;;;;;6233834;28;20068;-82
2021/06/26 06:20:32;;;;;;;11.73;8.50;;;17.70;99.90;;;;;;6238485;28;20032;-82
2021/06/26 06:23:33;;;;;;;11.02;8.05;;;17.90;99.90;;;;;;6258725;28;20037;-81
2021/06/26 06:26:34;;;;;;;9.93;8.27;;;18.00;99.90;;;;;;6256585;28;20082;-81
2021/06/26 06:29:34;;;;;;;9.98;8.98;;;18.30;99.90;;;;;;6266217;28;20107;-83
2021/06/26 06:32:35;;;;;;;9.65;8.65;;;;;;;;;;6260570;28;20052;-84
2021/06/26 06:35:36;;;;;;;11.15;8.20;;;18.40;99.90;;;;;;6267010;28;20036;-82
2021/06/26 06:38:36;;;;;;;9.75;8.38;;;18.60;99.90;;;;;;6250541;28;20059;-80
2021/06/26 06:41:37;;;;;;;10.10;8.10;;;18.70;99.90;;;;;;6248088;28;20139;-78
2021/06/26 06:44:37;;;;;;;13.50;8.05;;;19.10;99.90;;;;;;6250450;28;20447;-80
2021/06/26 06:47:38;;;;;;;10.75;8.35;;;19.10;99.90;;;;;;6255919;28;20040;-82
2021/06/26 06:50:39;;;;;;;8.35;7.55;;;19.30;99.90;;;;;;6269259;28;20474;-81
2021/06/26 06:53:39;;;;;;;9.05;8.05;;;19.60;99.90;;;;;;6217439;28;20082;-82
2021/06/26 06:56:40;;;;;;;9.15;7.57;;;19.80;99.90;;;;;;6217129;28;20034;-82
2021/06/26 06:59:41;;;;;;;10.30;8.68;;;19.70;99.90;;;;;;6241857;28;20026;-81
2021/06/26 07:02:41;;;;;;;10.75;8.48;;;19.60;99.90;;;;;;6234320;28;20085;-81
2021/06/26 07:05:42;;;;;;;9.15;7.90;;;20.10;99.90;;;;;;6234269;28;20124;-83
2021/06/26 07:08:42;;;;;;;8.85;7.95;;;20.10;99.90;;;;;;6227469;28;20034;-79
2021/06/26 07:11:43;;;;;;;8.15;7.40;;;20.10;99.90;;;;;;6233678;28;20109;-79
2021/06/26 07:14:44;;;;;;;11.23;7.68;;;20.40;99.90;;;;;;6237977;28;20796;-81
2021/06/26 07:17:44;;;;;;;8.73;7.82;;;20.60;99.90;;;;;;6242725;28;20120;-82
2021/06/26 07:20:45;;;;;;;9.88;8.55;;;20.70;99.90;;;;;;6241410;28;20472;-83
2021/06/26 07:23:45;;;;;;;11.32;7.32;;;21.00;98.10;;;;;;6217317;28;20038;-81
2021/06/26 07:26:46;;;;;;;8.63;7.55;;;21.10;98.80;;;;;;6219164;28;20026;-84
2021/06/26 07:29:46;;;;;;;10.20;7.60;;;21.50;99.10;;;;;;6219258;28;20037;-84
2021/06/26 07:32:47;;;;;;;9.00;8.10;;;21.90;97.70;;;;;;6233817;28;20837;-86
2021/06/26 07:35:48;;;;;;;8.20;7.40;;;22.50;97.50;;;;;;6241015;28;20033;-81
2021/06/26 07:38:48;;;;;;;9.32;7.03;;;22.90;97.00;;;;;;6246345;28;20129;-81
2021/06/26 07:41:49;;;;;;;9.07;6.93;;;23.60;96.10;;;;;;6234044;28;20033;-84
2021/06/26 07:44:50;;;;;;;6.85;6.25;;;24.60;99.90;;;;;;6239359;28;20033;-83
2021/06/26 07:47:50;;;;;;;7.55;6.60;;;24.70;93.70;;;;;;6231749;28;20033;-85
2021/06/26 07:50:51;;;;;;;7.47;6.78;;;25.00;99.90;;;;;;6242596;28;20061;-84
2021/06/26 07:53:52;;;;;;;8.63;6.80;;;25.80;99.40;;;;;;6248626;28;20510;-83
2021/06/26 07:56:53;;;;;;;7.90;7.20;;;26.00;97.10;;;;;;6267753;28;20041;-85
2021/06/26 07:59:53;;;;;;;8.50;6.93;;;26.40;99.90;;;;;;6229680;28;20036;-83
2021/06/26 08:02:54;;;;;;;7.90;6.93;;;26.50;99.90;;;;;;6245832;28;20533;-81
2021/06/26 08:05:55;;;;;;;8.50;6.30;;;26.90;99.90;;;;;;6265367;28;20063;-79
2021/06/26 08:09:04;;;;;;;7.07;6.43;;;27.20;95.50;;;;;;6245304;28;20409;-79
2021/06/26 08:12:05;;;;;;;7.45;6.75;;;26.00;93.50;;;;;;6254207;28;20084;-80
2021/06/26 08:15:06;;;;;;;10.73;7.10;;;26.90;99.90;;;;;;6267489;28;20167;-80
2021/06/26 08:18:08;;;;;;;6.85;6.25;;;26.80;99.90;;;;;;6245676;28;20458;-80
2021/06/26 08:21:08;;;;;;;8.17;7.17;;;26.50;94.40;;;;;;6255278;28;20136;-80
2021/06/26 08:24:09;;;;;;;7.33;6.63;;;;;;;;;;6255062;28;20329;-81
2021/06/26 08:27:10;;;;;;;8.52;6.43;;;27.80;92.10;;;;;;6271510;28;20045;-81
2021/06/26 08:30:11;;;;;;;8.47;6.93;;;28.00;86.60;;;;;;6269573;28;20092;-80
2021/06/26 08:33:11;;;;;;;9.27;6.85;;;28.30;82.40;;;;;;6252737;28;20025;-81
2021/06/26 08:36:12;;;;;;;9.17;6.33;;;28.80;82.10;;;;;;6265489;28;21161;-85
2021/06/26 08:39:13;;;;;;;7.07;6.37;;;29.30;80.10;;;;;;6240918;28;20039;-84
2021/06/26 08:42:14;;;;;;;6.53;5.87;;;29.60;79.00;;;;;;6269702;28;20029;-86
2021/06/26 08:45:17;;;;;;;7.30;6.53;;;29.50;76.80;;;;;;6255940;28;20028;-84
2021/06/26 08:48:17;;;;;;;6.80;6.20;;;29.30;75.90;;;;;;6252434;28;20037;-85
2021/06/26 08:51:18;;;;;;;9.20;6.50;;;29.40;78.90;;;;;;6264326;28;20033;-85
2021/06/26 08:54:19;;;;;;;7.17;6.27;;;29.50;75.50;;;;;;6245230;28;20102;-84
2021/06/26 08:57:33;;;;;;;7.27;6.57;;;29.60;75.30;;;;;;6244081;28;20539;-84
2021/06/26 09:00:33;;;;;;;9.43;6.32;;;29.80;74.50;;;;;;6256458;28;20036;-86
2021/06/26 09:03:34;;;;;;;7.50;6.13;;;30.10;77.20;;;;;;6228011;28;20025;-86
2021/06/26 09:06:55;;;;;;;6.77;6.03;;;30.20;75.10;;;;;;6227197;28;20038;-82
2021/06/26 09:09:56;;;;;;;6.43;5.82;;;30.40;73.60;;;;;;6243685;28;20458;-81
2021/06/26 09:12:57;;;;;;;8.00;7.20;;;30.40;73.20;;;;;;6263475;28;20497;-83
2021/06/26 09:16:11;;;;;;;7.87;6.67;;;30.20;74.40;;;;;;6260936;28;20053;-82
2021/06/26 09:19:12;;;;;;;7.07;6.20;;;30.40;74.60;;;;;;6250155;28;20550;-82
2021/06/26 09:22:13;;;;;;;7.50;5.53;;;30.20;72.70;;;;;;6269745;28;20036;-80
2021/06/26 09:25:25;;;;;;;6.57;5.97;;;29.80;72.30;;;;;;6256318;28;20033;-79
2021/06/26 09:28:27;;;;;;;5.95;5.45;;;29.10;73.60;;;;;;6244151;28;20089;-82
2021/06/26 09:31:28;;;;;;;7.90;7.18;;;29.50;76.70;;;;;;6245043;28;20463;-81
2021/06/26 09:34:42;;;;;;;10.37;6.37;;;29.90;76.70;;;;;;6252353;28;20113;-84
2021/06/26 09:37:43;;;;;;;8.27;6.60;;;29.00;73.00;;;;;;6228849;28;20132;-82
2021/06/26 09:40:43;;;;;;;11.33;7.50;;;28.20;76.50;;;;;;6256203;28;20516;-81
2021/06/26 09:43:44;;;;;;;7.93;6.90;;;27.40;79.50;;;;;;6230329;28;20026;-79
2021/06/26 09:46:49;;;;;;;8.00;7.13;;;27.20;83.20;;;;;;6242907;28;20057;-79
2021/06/26 09:49:50;;;;;;;8.75;7.85;;;27.20;82.00;;;;;;6242718;28;20494;-81
2021/06/26 09:53:03;;;;;;;8.80;8.00;;;27.60;83.90;;;;;;6242217;28;20085;-80
2021/06/26 09:56:04;;;;;;;8.27;7.47;;;27.10;81.70;;;;;;6226579;28;20025;-80
2021/06/26 09:59:05;;;;;;;8.50;7.60;;;26.50;83.50;;;;;;6244255;28;20140;-82
2021/06/26 10:02:05;;;;;;;8.20;7.40;;;26.40;84.60;;;;;;6245788;28;20458;-80
2021/06/26 10:05:07;;;;;;;8.80;7.93;;;26.60;85.50;;;;;;6260253;28;20051;-84
2021/06/26 10:08:07;;;;;;;7.90;7.20;;;26.80;85.40;;;;;;6251589;28;20030;-80
2021/06/26 10:11:08;;;;;;;8.40;7.60;;;27.40;85.80;;;;;;6226319;28;20117;-83
2021/06/26 10:14:10;;;;;;;8.07;7.20;;;27.80;84.20;;;;;;6243169;28;20060;-84
2021/06/26 10:17:10;;;;;;;7.30;6.60;;;28.20;83.60;;;;;;6229661;28;20092;-86
2021/06/26 10:20:13;;;;;;;7.17;6.47;;;28.50;82.90;;;;;;6242494;28;20067;-83
2021/06/26 10:23:14;;;;;;;7.82;7.13;;;28.90;80.20;;;;;;6241588;28;20472;-81
2021/06/26 10:26:16;;;;;;;8.03;7.23;;;29.10;79.30;;;;;;6226195;28;20030;-81
2021/06/26 10:29:16;;;;;;;8.32;7.53;;;28.60;79.80;;;;;;6228507;28;20030;-79
2021/06/26 10:32:18;;;;;;;9.00;8.10;;;29.20;78.20;;;;;;6245581;28;20471;-80
2021/06/26 10:35:19;;;;;;;9.20;8.00;;;29.10;78.60;;;;;;6226885;28;20038;-76
2021/06/26 10:38:19;;;;;;;8.97;8.07;;;29.10;79.00;;;;;;6264625;28;20562;-80
2021/06/26 10:41:21;;;;;;;8.27;7.43;;;29.10;79.80;;;;;;6228816;28;20032;-79
2021/06/26 10:44:22;;;;;;;8.27;7.55;;;;;;;;;;6244695;28;20379;-79
2021/06/26 10:47:42;;;;;;;7.80;7.10;;;29.00;82.70;;;;;;6243602;28;20028;-80
2021/06/26 10:50:47;;;;;;;8.35;7.55;;;29.30;79.60;;;;;;6242747;28;20080;-79
2021/06/26 10:53:47;;;;;;;8.07;7.20;;;29.40;80.30;;;;;;6241706;28;20068;-80
2021/06/26 10:56:49;;;;;;;8.93;8.03;;;29.40;88.50;;;;;;6262492;28;20033;-79
2021/06/26 10:59:57;;;;;;;8.63;7.82;;;29.20;87.40;;;;;;6250235;28;20452;-78
2021/06/26 11:02:58;;;;;;;8.70;7.90;;;29.20;86.40;;;;;;6243501;28;20033;-80
2021/06/26 11:05:59;;;;;;;8.60;7.67;;;29.40;89.00;;;;;;6261764;28;20029;-79
2021/06/26 11:09:10;;;;;;;;;;;29.20;78.80;;;;;;6255226;28;20066;-79
2021/06/26 11:12:12;;;;;;;7.78;7.07;;;29.40;79.10;;;;;;6265300;28;19916;-83
2021/06/26 11:15:13;;;;;;;9.27;7.75;;;29.70;81.50;;;;;;6271404;28;20037;-79
2021/06/26 11:18:15;;;;;;;9.35;7.35;;;29.70;77.90;;;;;;6271489;28;20120;-79
2021/06/26 11:21:16;;;;;;;8.43;7.50;;;29.70;78.30;;;;;;6254749;28;20033;-79
2021/06/26 11:24:17;;;;;;;8.67;7.87;;;29.60;79.70;;;;;;6272480;28;20036;-79
2021/06/26 11:27:18;;;;;;;9.35;7.65;;;29.40;76.70;;;;;;6254696;28;20101;-79
2021/06/26 11:30:19;;;;;;;;;;;29.40;79.60;;;;;;6272288;28;20662;-79
2021/06/26 11:33:33;;;;;;;8.87;7.87;;;29.20;78.40;;;;;;6272102;28;19908;-79
2021/06/26 11:36:34;;;;;;;9.23;7.40;;;29.20;78.40;;;;;;6271289;28;20017;-80
2021/06/26 11:39:35;;;;;;;8.73;7.60;;;29.30;80.20;;;;;;6270767;28;20052;-81
2021/06/26 11:42:35;;;;;;;11.90;8.07;;;29.40;78.90;;;;;;6257290;28;20238;-80
2021/06/26 11:45:38;;;;;;;11.23;8.07;;;29.50;77.80;;;;;;6246262;28;20462;-80
2021/06/26 11:48:39;;;;;;;8.95;8.15;;;29.10;77.60;;;;;;6246247;28;20038;-79
2021/06/26 11:51:40;;;;;;;8.33;7.53;;;29.00;81.10;;;;;;6248110;28;20042;-83
2021/06/26 11:54:41;;;;;;;8.60;7.80;;;29.00;79.70;;;;;;6256588;28;20102;-80
2021/06/26 11:57:42;;;;;;;8.48;7.22;;;29.30;80.70;;;;;;6277590;28;20986;-79
2021/06/26 12:00:43;;;;;;;8.70;7.80;;;29.30;80.40;;;;;;6257525;28;20032;-82
2021/06/26 12:03:44;;;;;;;8.80;7.78;;;28.00;79.00;;;;;;6237686;28;20033;-80
2021/06/26 12:06:44;;;;;;;8.13;7.43;;;29.40;80.50;;;;;;6236965;28;20048;-80
2021/06/26 12:09:45;;;;;;;8.37;7.57;;;29.40;79.20;;;;;;6253887;28;20161;-79
2021/06/26 12:12:45;;;;;;;7.93;7.27;;;29.40;80.30;;;;;;6253454;28;20048;-79
2021/06/26 12:15:46;;;;;;;8.03;7.23;;;29.30;79.10;;;;;;6269673;28;20048;-79
2021/06/26 12:18:53;;;;;;;7.50;6.80;;;29.40;80.90;;;;;;6257736;28;20055;-80
2021/06/26 12:21:53;;;;;;;7.82;7.13;;;29.60;95.10;;;;;;6278037;28;20039;-80
2021/06/26 12:25:10;;;;;;;8.20;7.40;;;29.10;85.70;;;;;;6253397;28;20108;-82
2021/06/26 12:28:11;;;;;;;8.57;7.57;;;27.90;79.20;;;;;;6264395;28;20032;-80
2021/06/26 12:31:12;;;;;;;8.75;6.88;;;28.40;87.40;;;;;;6261318;28;20028;-80
2021/06/26 12:34:13;;;;;;;7.38;6.68;;;28.40;90.00;;;;;;6294018;28;20035;-80
2021/06/26 12:37:14;;;;;;;8.10;7.30;;;28.30;88.80;;;;;;6295625;28;20402;-80
2021/06/26 12:40:23;;;;;;;7.43;6.73;;;28.20;86.50;;;;;;6294313;28;20115;-80
2021/06/26 12:43:32;;;;;;;8.32;6.60;;;28.10;79.00;;;;;;6276382;28;20043;-78
2021/06/26 12:46:32;;;;;;;9.68;7.00;;;28.30;87.80;;;;;;6277486;28;20032;-79
2021/06/26 12:49:40;;;;;;;7.73;7.03;;;28.10;89.90;;;;;;6277808;28;20115;-80
2021/06/26 12:52:50;;;;;;;8.00;7.20;;;28.20;78.40;;;;;;6261376;28;20056;-79
2021/06/26 12:56:05;;;;;;;7.93;7.07;;;28.30;81.10;;;;;;6277744;28;20021;-79
2021/06/26 12:59:08;;;;;;;8.05;7.35;;;28.60;86.20;;;;;;6278136;28;20044;-81
2021/06/26 13:02:09;;;;;;;7.43;6.47;;;28.70;80.90;;;;;;6277212;28;20691;-80
2021/06/26 13:05:23;;;;;;;7.60;6.90;;;28.60;77.10;;;;;;6265297;28;20029;-78
2021/06/26 13:08:27;;;;;;;8.00;7.30;;;28.50;88.70;;;;;;6236068;28;20120;-82
2021/06/26 13:11:42;;;;;;;7.32;6.63;;;28.90;89.50;;;;;;6252725;28;20501;-79
2021/06/26 13:14:44;;;;;;;7.03;6.43;;;29.20;80.70;;;;;;6259894;28;20040;-80
2021/06/26 13:17:45;;;;;;;7.00;6.40;;;29.20;77.00;;;;;;6293466;28;20068;-80
2021/06/26 13:20:46;;;;;;;7.40;6.70;;;29.00;75.10;;;;;;6276654;28;20123;-79
2021/06/26 13:23:47;;;;;;;8.43;7.20;;;28.80;77.10;;;;;;6276372;28;20031;-79
2021/06/26 13:26:48;;;;;;;11.10;7.03;;;28.10;76.80;;;;;;6276089;28;20116;-79
2021/06/26 13:29:48;;;;;;;7.73;7.03;;;27.60;77.80;;;;;;6276430;28;20432;-79
2021/06/26 13:32:51;;;;;;;8.73;7.93;;;27.60;81.10;;;;;;6259780;28;21120;-80
2021/06/26 13:35:52;;;;;;;8.13;6.43;;;27.90;80.50;;;;;;6294248;28;20070;-82
2021/06/26 13:38:52;;;;;;;7.33;6.17;;;28.10;79.70;;;;;;6253197;28;20131;-81
2021/06/26 13:41:53;;;;;;;8.50;7.60;;;28.60;76.90;;;;;;6234911;28;20021;-79
2021/06/26 13:44:53;;;;;;;8.00;7.20;;;28.90;77.30;;;;;;6234438;28;20463;-80
2021/06/26 13:47:54;;;;;;;7.23;6.33;;;28.90;79.70;;;;;;6237703;28;20078;-80
2021/06/26 13:50:54;;;;;;;7.93;6.57;;;29.20;82.00;;;;;;6275845;28;20056;-83
2021/06/26 13:53:55;;;;;;;7.23;6.57;;;29.30;80.50;;;;;;6294097;28;20056;-79
2021/06/26 13:56:57;;;;;;;7.00;6.30;;;29.30;80.70;;;;;;6259405;28;20093;-80
2021/06/26 13:59:57;;;;;;;7.35;6.65;;;29.00;77.90;;;;;;6275939;28;20025;-80
2021/06/26 14:02:58;;;;;;;7.63;6.13;;;28.70;77.80;;;;;;6275515;28;20082;-79
2021/06/26 14:05:58;;;;;;;8.03;7.20;;;28.70;79.00;;;;;;6276019;28;20111;-80
2021/06/26 14:08:59;;;;;;;6.97;6.37;;;28.60;77.90;;;;;;6273641;28;20028;-84
2021/06/26 14:11:59;;;;;;;6.87;6.17;;;28.50;76.80;;;;;;6268803;28;20029;-79
2021/06/26 14:15:01;;;;;;;8.17;6.43;;;28.70;79.40;;;;;;6252407;28;20036;-80
2021/06/26 14:18:02;;;;;;;7.65;6.78;;;28.60;77.90;;;;;;6268131;28;20035;-79
2021/06/26 14:21:05;;;;;;;7.23;6.60;;;28.50;79.30;;;;;;6258736;28;20037;-81
2021/06/26 14:24:05;;;;;;;7.13;6.53;;;28.10;77.30;;;;;;6257867;28;20035;-80
2021/06/26 14:27:06;;;;;;;8.70;6.73;;;27.80;76.60;;;;;;6275537;28;20033;-79
2021/06/26 14:30:08;;;;;;;7.50;6.17;;;27.90;81.00;;;;;;6259051;28;20024;-80
2021/06/26 14:33:11;;;;;;;6.35;5.85;;;28.20;81.50;;;;;;6264139;28;20724;-79
2021/06/26 14:36:13;;;;;;;6.90;6.30;;;28.20;81.40;;;;;;6273013;28;20127;-84
2021/06/26 14:39:13;;;;;;;6.90;6.30;;;28.10;79.60;;;;;;6250170;28;20037;-78
2021/06/26 14:42:19;;;;;;;7.23;6.63;;;28.20;79.90;;;;;;6250486;28;20029;-82
2021/06/26 14:45:19;;;;;;;7.80;7.00;;;28.30;77.20;;;;;;6250120;28;20434;-80
2021/06/26 14:48:22;;;;;;;7.40;6.50;;;28.30;80.00;;;;;;6250515;28;20031;-81
2021/06/26 14:51:22;;;;;;;7.47;6.68;;;28.10;80.20;;;;;;6267995;28;20039;-80
2021/06/26 14:54:23;;;;;;;7.73;6.50;;;28.00;77.70;;;;;;6233462;28;20128;-79
2021/06/26 14:57:23;;;;;;;9.80;6.47;;;27.90;80.80;;;;;;6286662;28;20502;-79
2021/06/26 15:00:24;;;;;;;7.40;6.63;;;27.80;80.00;;;;;;6253780;28;20482;-81
2021/06/26 15:03:25;;;;;;;7.53;6.77;;;27.50;80.60;;;;;;6268274;28;20087;-79
2021/06/26 15:06:25;;;;;;;6.90;6.20;;;27.00;80.40;;;;;;6267776;28;20083;-83
2021/06/26 15:09:26;;;;;;;7.20;6.60;;;26.80;80.00;;;;;;6249970;28;20094;-79
2021/06/26 15:12:27;;;;;;;8.37;7.07;;;26.60;82.10;;;;;;6249754;28;20025;-78
2021/06/26 15:15:27;;;;;;;7.57;6.77;;;26.60;90.10;;;;;;6250540;28;20080;-80
2021/06/26 15:18:30;;;;;;;8.10;7.40;;;27.20;90.30;;;;;;6256265;28;20447;-80
2021/06/26 15:21:31;;;;;;;7.25;6.60;;;27.10;89.60;;;;;;6292790;28;20024;-79
2021/06/26 15:24:32;;;;;;;7.07;6.47;;;;;;;;;;6250876;28;20039;-81
2021/06/26 15:27:33;;;;;;;7.95;7.13;;;27.50;87.10;;;;;;6267655;28;20047;-81
2021/06/26 15:30:33;;;;;;;10.00;6.83;;;27.30;88.30;;;;;;6249679;28;20121;-79
2021/06/26 15:33:34;;;;;;;7.83;7.00;;;27.70;90.00;;;;;;6232945;28;20033;-79
2021/06/26 15:36:35;;;;;;;8.30;7.40;;;27.50;82.90;;;;;;6232863;28;20029;-79
2021/06/26 15:39:36;;;;;;;10.13;7.22;;;27.40;83.50;;;;;;6249591;28;20491;-79
2021/06/26 15:42:36;;;;;;;7.30;6.60;;;27.50;84.30;;;;;;6249591;28;20037;-79
2021/06/26 15:45:37;;;;;;;7.63;6.97;;;27.50;84.50;;;;;;6249676;28;20104;-79
2021/06/26 15:48:38;;;;;;;7.50;6.80;;;27.90;80.40;;;;;;6249571;28;20033;-79